Time;durP1;ratioP1;P1;durP2;ratioP2;P2;SDS_P1;SDS_P2;PMS_P1;PMS_P2;Temp;Humidity;BMP_temperature;BMP_pressure;BME280_temperature;BME280_humidity;BME280_pressure;Samples;Min_cycle;Max_cycle;Signal;HPM_P1;HPM_P2
2022/10/12 00:01:27;;;;;;;2.53;1.30;;;;;;;8.79;92.28;101223.78;4996938;28;20025;-74
2022/10/12 00:03:52;;;;;;;6.70;1.30;;;;;;;8.80;92.34;101224.63;5021833;28;20032;-75
2022/10/12 00:06:22;;;;;;;4.43;1.60;;;;;;;8.75;92.17;101230.97;5004845;28;20050;-74
2022/10/12 00:08:48;;;;;;;7.32;1.90;;;;;;;8.73;92.40;101219.31;5018505;28;20086;-74
2022/10/12 00:11:15;;;;;;;3.67;1.40;;;;;;;8.71;92.49;101211.25;4999078;28;20038;-74
2022/10/12 00:13:41;;;;;;;3.47;1.55;;;;;;;8.70;92.59;101209.59;5010241;28;20032;-74
2022/10/12 00:16:07;;;;;;;5.05;1.65;;;;;;;8.70;92.58;101208.75;5017501;28;20029;-74
2022/10/12 00:18:33;;;;;;;4.18;1.70;;;;;;;8.64;92.48;101205.13;5029405;28;20032;-75
2022/10/12 00:21:02;;;;;;;4.32;1.55;;;;;;;8.64;92.52;101207.06;4978554;28;20045;-74
2022/10/12 00:23:28;;;;;;;4.57;1.95;;;;;;;8.62;92.74;101193.47;4992777;28;20026;-74
2022/10/12 00:25:54;;;;;;;3.88;1.40;;;;;;;8.58;92.93;101195.09;4998859;28;20109;-75
2022/10/12 00:28:19;;;;;;;2.88;1.30;;;;;;;8.56;92.91;101200.06;5015827;28;20041;-74
2022/10/12 00:30:45;;;;;;;5.05;1.63;;;;;;;8.56;92.82;101196.47;5018258;28;20099;-75
2022/10/12 00:33:10;;;;;;;3.03;1.40;;;;;;;8.54;92.72;101196.72;5034708;28;20025;-74
2022/10/12 00:35:36;;;;;;;4.05;1.40;;;;;;;8.53;93.06;101202.53;5025000;28;20060;-74
2022/10/12 00:38:02;;;;;;;3.05;1.50;;;;;;;8.49;93.17;101199.44;5008186;28;20044;-74
2022/10/12 00:40:27;;;;;;;3.92;1.48;;;;;;;8.48;92.94;101204.13;5002687;28;20021;-75
2022/10/12 00:42:53;;;;;;;4.28;1.40;;;;;;;8.49;93.15;101202.19;5033985;28;20485;-74
2022/10/12 00:45:18;;;;;;;3.40;1.25;;;;;;;8.47;92.92;101196.94;5036962;28;20536;-75
2022/10/12 00:47:48;;;;;;;2.88;1.25;;;;;;;8.44;93.25;101199.38;5001506;28;20029;-75
2022/10/12 00:50:39;;;;;;;5.57;1.50;;;;;;;8.43;93.20;101198.56;5001711;28;20032;-75
2022/10/12 00:53:10;;;;;;;5.82;1.33;;;;;;;8.42;93.39;101201.59;5007928;28;20108;-74
2022/10/12 00:55:38;;;;;;;4.10;1.27;;;;;;;8.40;93.35;101199.09;5007389;28;20030;-74
2022/10/12 00:58:04;;;;;;;3.65;1.40;;;;;;;8.40;93.37;101195.50;5038308;28;20029;-75
2022/10/12 01:00:30;;;;;;;3.65;1.30;;;;;;;8.38;93.46;101190.16;5001461;28;20051;-75
2022/10/12 01:02:55;;;;;;;3.47;1.10;;;;;;;8.38;93.71;101184.63;5042687;28;20079;-75
2022/10/12 01:05:21;;;;;;;2.92;1.17;;;;;;;8.37;93.85;101187.69;5027312;28;20427;-75
2022/10/12 01:07:46;;;;;;;3.15;1.40;;;;;;;8.34;94.06;101177.13;5018539;28;20018;-74
2022/10/12 01:10:12;;;;;;;3.88;1.38;;;;;;;8.38;93.88;101181.03;5020167;28;20038;-75
2022/10/12 01:12:38;;;;;;;3.65;1.40;;;;;;;8.39;93.87;101188.28;5017795;28;20017;-75
2022/10/12 01:15:04;;;;;;;1.92;1.20;;;;;;;8.35;94.18;101187.94;4988961;28;20060;-75
2022/10/12 01:17:44;;;;;;;5.38;1.45;;;;;;;8.32;94.29;101182.09;5034868;28;20036;-75
2022/10/12 01:20:42;;;;;;;3.05;1.60;;;;;;;8.32;94.39;101182.09;5020716;28;20045;-75
2022/10/12 01:23:17;;;;;;;5.22;1.55;;;;;;;8.34;94.42;101182.69;5018026;28;20036;-75
2022/10/12 01:25:54;;;;;;;2.58;1.30;;;;;;;8.31;94.40;101180.44;5020794;28;20049;-74
2022/10/12 01:28:32;;;;;;;4.85;1.60;;;;;;;8.32;94.22;101179.31;5038167;28;20025;-75
2022/10/12 01:31:01;;;;;;;3.45;1.40;;;;;;;8.32;94.28;101180.16;5050148;28;20048;-75
2022/10/12 01:33:33;;;;;;;5.68;1.30;;;;;;;8.33;94.11;101181.84;5000916;28;20024;-74
2022/10/12 01:36:14;;;;;;;4.20;1.30;;;;;;;8.28;94.21;101188.16;5005365;28;20116;-74
2022/10/12 01:38:47;;;;;;;3.08;1.40;;;;;;;8.28;94.39;101182.63;4995404;28;20021;-74
2022/10/12 01:41:15;;;;;;;;;;;;;;;8.27;94.23;101185.63;5009974;28;20045;-74
2022/10/12 01:43:42;;;;;;;3.63;1.25;;;;;;;8.28;94.03;101176.25;5025751;28;19913;-74
2022/10/12 01:46:14;;;;;;;8.13;1.58;;;;;;;8.28;93.96;101181.78;5017750;28;20083;-75
2022/10/12 01:48:39;;;;;;;3.17;1.50;;;;;;;8.25;94.13;101180.38;5017836;28;20026;-74
2022/10/12 01:51:05;;;;;;;5.28;1.38;;;;;;;8.23;94.21;101171.50;5015618;28;20533;-74
2022/10/12 01:53:50;;;;;;;3.15;1.38;;;;;;;8.22;94.25;101175.38;5029187;28;20025;-74
2022/10/12 01:56:19;;;;;;;3.45;1.50;;;;;;;8.22;94.04;101166.25;5019808;28;20098;-73
2022/10/12 01:58:57;;;;;;;3.35;1.42;;;;;;;8.19;93.98;101159.31;5032026;28;20501;-74
2022/10/12 02:01:53;;;;;;;3.35;1.23;;;;;;;8.15;94.17;101169.19;5029793;28;20037;-74
2022/10/12 02:04:22;;;;;;;4.40;1.30;;;;;;;8.14;94.24;101153.72;5051242;28;20095;-74
2022/10/12 02:06:51;;;;;;;2.95;1.30;;;;;;;8.11;93.99;101159.78;5036891;28;20062;-74
2022/10/12 02:09:17;;;;;;;3.25;1.50;;;;;;;8.10;93.95;101152.56;5039287;28;20029;-74
2022/10/12 02:11:43;;;;;;;3.22;1.55;;;;;;;8.05;94.47;101158.03;5022900;28;20052;-74
2022/10/12 02:14:14;;;;;;;3.28;1.60;;;;;;;8.00;94.50;101149.69;5022081;28;20034;-74
2022/10/12 02:16:44;;;;;;;9.13;1.70;;;;;;;8.01;94.21;101145.84;5001176;28;20723;-74
2022/10/12 02:19:11;;;;;;;3.30;1.48;;;;;;;7.98;94.33;101151.88;5001783;28;20037;-74
2022/10/12 02:21:36;;;;;;;4.53;1.40;;;;;;;7.96;94.28;101151.31;5020049;28;20084;-74
2022/10/12 02:24:04;;;;;;;2.55;1.30;;;;;;;7.97;94.05;101150.22;5020150;28;20029;-74
2022/10/12 02:26:31;;;;;;;2.83;1.40;;;;;;;7.94;94.04;101145.19;5005642;28;20482;-74
2022/10/12 02:28:57;;;;;;;4.60;1.40;;;;;;;7.89;94.07;101153.47;5025233;28;20029;-74
2022/10/12 02:31:44;;;;;;;2.22;1.15;;;;;;;7.85;94.14;101139.31;5045298;28;20037;-74
2022/10/12 02:34:17;;;;;;;2.97;1.33;;;;;;;7.83;94.22;101144.28;4989512;28;20026;-74
2022/10/12 02:36:45;;;;;;;;;;;;;;;7.81;94.16;101144.53;5037162;28;20033;-74
2022/10/12 02:39:22;;;;;;;3.63;1.25;;;;;;;7.79;94.24;101143.13;5000445;28;19964;-75
2022/10/12 02:41:49;;;;;;;3.47;1.40;;;;;;;7.80;94.50;101147.53;5033924;28;20060;-74
2022/10/12 02:44:18;;;;;;;2.00;1.10;;;;;;;7.75;94.22;101145.56;5031719;28;20032;-74
2022/10/12 02:46:44;;;;;;;3.08;1.13;;;;;;;7.69;94.45;101149.38;4994527;28;20038;-75
2022/10/12 02:49:09;;;;;;;5.60;1.42;;;;;;;7.71;94.10;101144.41;4984088;28;20052;-75
2022/10/12 02:51:35;;;;;;;4.88;1.27;;;;;;;7.67;94.21;101148.78;5022986;28;20030;-75
2022/10/12 02:54:01;;;;;;;3.35;1.33;;;;;;;7.65;94.31;101147.38;5032129;28;20036;-74
2022/10/12 02:56:26;;;;;;;5.78;1.40;;;;;;;7.63;94.52;101144.88;5026496;28;20025;-74
2022/10/12 02:58:52;;;;;;;2.95;1.20;;;;;;;7.58;94.42;101147.59;4990572;28;20065;-74
2022/10/12 03:01:17;;;;;;;4.57;1.38;;;;;;;7.57;94.53;101143.13;5013569;28;20034;-74
2022/10/12 03:03:43;;;;;;;4.88;1.67;;;;;;;7.53;94.77;101137.31;4999751;28;20033;-75
2022/10/12 03:06:09;;;;;;;4.90;1.30;;;;;;;7.53;94.44;101137.31;4992139;28;20056;-74
2022/10/12 03:08:34;;;;;;;4.00;1.30;;;;;;;7.50;94.52;101139.75;5026880;28;20029;-74
2022/10/12 03:11:04;;;;;;;4.40;1.38;;;;;;;7.49;94.47;101138.06;5047501;28;20067;-74
2022/10/12 03:13:29;;;;;;;3.42;1.27;;;;;;;7.49;94.63;101135.31;5031370;28;20033;-74
2022/10/12 03:16:01;;;;;;;3.78;1.38;;;;;;;7.45;94.72;101128.63;5015810;28;20379;-74
2022/10/12 03:18:26;;;;;;;3.85;1.45;;;;;;;7.42;94.90;101131.91;5031897;28;20037;-74
2022/10/12 03:20:51;;;;;;;4.50;1.42;;;;;;;7.41;94.87;101130.22;4999191;28;20037;-75
2022/10/12 03:23:17;;;;;;;5.13;1.45;;;;;;;7.43;94.65;101134.41;4999015;28;20034;-75
2022/10/12 03:25:42;;;;;;;2.90;1.17;;;;;;;7.38;94.76;101124.16;5002545;28;20045;-74
2022/10/12 03:28:08;;;;;;;2.78;1.10;;;;;;;7.36;94.88;101129.09;4982773;28;20521;-74
2022/10/12 03:30:33;;;;;;;4.68;1.13;;;;;;;7.36;94.84;101131.03;5019500;28;20029;-74
2022/10/12 03:32:59;;;;;;;3.20;0.93;;;;;;;7.30;94.85;101123.75;5034129;28;20029;-74
2022/10/12 03:35:24;;;;;;;5.68;1.45;;;;;;;7.29;94.75;101119.31;4999222;28;20517;-74
2022/10/12 03:37:50;;;;;;;4.10;1.70;;;;;;;7.30;94.72;101126.50;4999299;28;20061;-74
2022/10/12 03:40:15;;;;;;;4.28;1.38;;;;;;;7.28;94.56;101124.00;4986969;28;20025;-75
2022/10/12 03:42:41;;;;;;;5.05;1.50;;;;;;;7.22;95.26;101127.81;5035076;28;20037;-75
2022/10/12 03:45:07;;;;;;;3.33;1.10;;;;;;;7.20;95.08;101118.09;5032102;28;20030;-74
2022/10/12 03:47:33;;;;;;;5.22;1.50;;;;;;;7.20;95.33;101118.94;5008037;28;20041;-75
2022/10/12 03:49:58;;;;;;;3.78;1.40;;;;;;;7.19;95.21;101122.78;5006517;28;20029;-74
2022/10/12 03:52:24;;;;;;;3.25;1.40;;;;;;;7.19;95.04;101111.75;5020490;28;20029;-74
2022/10/12 03:54:49;;;;;;;5.95;1.35;;;;;;;7.16;95.47;101115.03;5032189;28;20095;-74
2022/10/12 03:57:15;;;;;;;3.83;1.60;;;;;;;7.12;95.63;101111.09;5030784;28;20036;-74
2022/10/12 03:59:40;;;;;;;4.60;1.42;;;;;;;7.12;95.72;101120.22;5018986;28;20048;-74
2022/10/12 04:02:06;;;;;;;3.47;1.45;;;;;;;7.12;95.74;101120.22;5015197;28;20034;-75
2022/10/12 04:04:31;;;;;;;2.90;1.40;;;;;;;7.15;95.56;101127.16;5014591;28;20037;-74
2022/10/12 04:06:57;;;;;;;4.03;1.52;;;;;;;7.11;95.62;101123.25;5029162;28;20398;-74
2022/10/12 04:09:22;;;;;;;3.90;1.60;;;;;;;7.10;95.79;101127.06;5048304;28;20030;-75
2022/10/12 04:11:48;;;;;;;6.18;1.38;;;;;;;7.08;95.68;101121.00;5018289;28;20057;-74
2022/10/12 04:14:13;;;;;;;2.53;1.15;;;;;;;7.10;95.63;101124.31;5001891;28;20037;-74
2022/10/12 04:16:39;;;;;;;5.13;1.42;;;;;;;7.06;95.81;101129.53;5019239;28;20037;-74
2022/10/12 04:19:04;;;;;;;2.80;1.60;;;;;;;7.07;95.74;101130.34;5021966;28;20059;-75
2022/10/12 04:21:30;;;;;;;4.13;1.30;;;;;;;7.09;95.81;101128.19;5005189;28;20034;-74
2022/10/12 04:23:56;;;;;;;3.00;1.13;;;;;;;7.07;95.82;101130.34;5021923;28;20025;-74
2022/10/12 04:26:21;;;;;;;4.95;1.20;;;;;;;7.07;95.56;101133.13;5028160;28;20048;-75
2022/10/12 04:28:47;;;;;;;5.97;1.40;;;;;;;7.08;95.66;101148.63;4998838;28;20497;-74
2022/10/12 04:31:12;;;;;;;5.10;1.27;;;;;;;7.06;95.76;101131.47;5014511;28;20529;-74
2022/10/12 04:33:38;;;;;;;3.00;1.40;;;;;;;7.07;95.91;101136.72;5002781;28;20030;-75
2022/10/12 04:36:03;;;;;;;4.82;1.40;;;;;;;7.05;96.07;101149.09;5016127;28;20037;-74
2022/10/12 04:38:29;;;;;;;4.32;1.50;;;;;;;7.02;95.85;101136.66;5012473;28;20057;-74
2022/10/12 04:40:54;;;;;;;3.75;1.63;;;;;;;7.05;95.74;101143.56;4998942;28;20044;-74
2022/10/12 04:43:20;;;;;;;5.50;1.67;;;;;;;7.01;95.81;101139.66;5018880;28;20393;-74
2022/10/12 04:45:53;;;;;;;5.22;1.65;;;;;;;7.03;95.97;101140.25;4999626;28;20052;-74
2022/10/12 04:48:18;;;;;;;5.63;1.45;;;;;;;6.99;96.05;101134.38;5012203;28;20039;-75
2022/10/12 04:50:44;;;;;;;3.10;1.30;;;;;;;7.01;95.91;101142.44;4997630;28;20030;-74
2022/10/12 04:53:09;;;;;;;2.25;1.35;;;;;;;7.02;95.80;101138.56;5005679;28;20032;-74
2022/10/12 04:55:36;;;;;;;3.85;1.80;;;;;;;7.00;95.96;101146.28;5013152;28;20370;-75
2022/10/12 04:58:01;;;;;;;3.85;1.40;;;;;;;7.05;95.92;101149.09;4986053;28;20068;-74
2022/10/12 05:00:27;;;;;;;3.80;1.35;;;;;;;6.98;96.23;101142.94;5010971;28;20026;-75
2022/10/12 05:02:52;;;;;;;5.03;1.60;;;;;;;6.96;96.25;101145.13;5000276;28;20042;-74
2022/10/12 05:05:18;;;;;;;4.18;1.85;;;;;;;6.98;95.92;101148.47;4993509;28;20205;-74
2022/10/12 05:07:43;;;;;;;3.53;1.77;;;;;;;6.94;95.99;101148.97;5024766;28;20025;-74
2022/10/12 05:10:09;;;;;;;3.78;1.80;;;;;;;6.97;95.94;101146.81;4997178;28;20056;-74
2022/10/12 05:12:34;;;;;;;3.55;1.58;;;;;;;6.97;95.75;101142.09;5001241;28;20386;-74
2022/10/12 05:15:00;;;;;;;3.17;1.92;;;;;;;6.97;95.77;101142.09;5014273;28;20092;-74
2022/10/12 05:17:25;;;;;;;3.30;1.75;;;;;;;6.92;96.08;101151.16;5021635;28;20042;-74
2022/10/12 05:19:51;;;;;;;4.15;1.60;;;;;;;6.91;96.10;101148.66;4992506;28;20088;-74
2022/10/12 05:22:16;;;;;;;4.57;1.52;;;;;;;6.91;95.95;101143.97;5001486;28;20045;-74
2022/10/12 05:24:42;;;;;;;4.38;1.75;;;;;;;6.90;95.76;101142.28;5028326;28;20041;-74
2022/10/12 05:27:07;;;;;;;3.92;2.00;;;;;;;6.87;96.06;101153.00;4990218;28;20454;-74
2022/10/12 05:29:33;;;;;;;4.35;2.17;;;;;;;6.91;96.05;101156.94;5002326;28;20042;-75
2022/10/12 05:31:58;;;;;;;5.55;2.03;;;;;;;6.85;96.09;101161.56;5016783;28;20046;-74
2022/10/12 05:34:23;;;;;;;4.85;1.77;;;;;;;6.90;96.22;101155.25;5018353;28;20112;-74
2022/10/12 05:36:49;;;;;;;9.40;2.40;;;;;;;6.86;96.24;101154.94;5017594;28;20552;-74
2022/10/12 05:39:14;;;;;;;7.25;2.13;;;;;;;6.87;95.97;101156.59;5017674;28;20080;-74
2022/10/12 05:41:40;;;;;;;4.30;1.83;;;;;;;6.87;96.20;101159.34;4987866;28;20032;-73
2022/10/12 05:44:06;;;;;;;3.38;1.98;;;;;;;6.85;96.42;101156.03;5005093;28;20037;-74
2022/10/12 05:46:31;;;;;;;4.88;2.50;;;;;;;6.84;96.51;101159.88;4987722;28;20029;-74
2022/10/12 05:48:56;;;;;;;5.80;2.00;;;;;;;6.87;96.56;101155.75;5001409;28;20395;-75
2022/10/12 05:51:22;;;;;;;4.57;2.33;;;;;;;6.81;96.56;101154.84;5017274;28;20482;-73
2022/10/12 05:53:47;;;;;;;4.82;1.98;;;;;;;6.81;96.82;101160.38;5047239;28;20029;-74
2022/10/12 05:56:13;;;;;;;4.45;2.15;;;;;;;6.87;96.78;101161.28;5044044;28;20048;-74
2022/10/12 05:58:38;;;;;;;4.65;2.20;;;;;;;6.83;96.69;101155.44;5047006;28;20025;-74
2022/10/12 06:01:08;;;;;;;7.78;2.33;;;;;;;6.83;96.84;101158.19;5000777;28;20025;-74
2022/10/12 06:03:34;;;;;;;6.38;2.30;;;;;;;6.86;96.72;101162.38;5014948;28;20553;-74
2022/10/12 06:05:59;;;;;;;5.70;2.20;;;;;;;6.85;96.71;101163.44;4989587;28;20115;-74
2022/10/12 06:08:25;;;;;;;5.28;2.10;;;;;;;6.83;96.34;101154.59;5037247;28;20034;-74
2022/10/12 06:10:51;;;;;;;4.70;2.10;;;;;;;6.85;96.40;101161.56;5013517;28;20073;-74
2022/10/12 06:13:18;;;;;;;5.45;2.20;;;;;;;6.87;96.34;101162.13;5013398;28;20108;-74
2022/10/12 06:15:44;;;;;;;4.80;2.25;;;;;;;6.86;96.23;101159.63;5017898;28;20095;-74
2022/10/12 06:18:10;;;;;;;4.65;2.05;;;;;;;6.83;96.37;101169.25;5003885;28;20033;-75
2022/10/12 06:20:36;;;;;;;4.82;2.40;;;;;;;6.85;96.71;101171.75;5040295;28;20029;-75
2022/10/12 06:23:02;;;;;;;4.25;2.38;;;;;;;6.88;96.64;101179.50;5000413;28;20053;-75
2022/10/12 06:25:27;;;;;;;5.63;2.08;;;;;;;6.86;96.82;101168.75;5004837;28;20021;-74
2022/10/12 06:27:53;;;;;;;3.45;2.17;;;;;;;6.87;96.79;101164.88;5023153;28;20040;-75
2022/10/12 06:30:18;;;;;;;3.60;2.00;;;;;;;6.85;96.68;101172.59;5026203;28;20033;-75
2022/10/12 06:32:44;;;;;;;4.75;2.30;;;;;;;6.91;96.61;101177.09;4986641;28;20145;-74
2022/10/12 06:35:09;;;;;;;5.95;2.28;;;;;;;6.88;96.75;101177.59;5022743;28;20033;-74
2022/10/12 06:37:35;;;;;;;5.22;2.08;;;;;;;6.92;96.58;101180.69;5029476;28;20029;-75
2022/10/12 06:40:00;;;;;;;5.95;2.42;;;;;;;6.91;96.86;101179.88;5043100;28;20704;-75
2022/10/12 06:42:26;;;;;;;6.75;2.10;;;;;;;6.92;97.20;101187.03;5011751;28;20032;-74
2022/10/12 06:44:51;;;;;;;4.35;1.92;;;;;;;6.96;96.75;101184.59;5022213;28;20044;-75
2022/10/12 06:47:17;;;;;;;4.15;2.45;;;;;;;6.94;97.00;101182.13;5010795;28;20391;-75
2022/10/12 06:49:42;;;;;;;5.05;2.40;;;;;;;7.00;96.84;101183.03;4988887;28;20032;-75
2022/10/12 06:52:08;;;;;;;6.60;2.60;;;;;;;7.00;96.95;101193.25;5024390;28;20037;-75
2022/10/12 06:54:33;;;;;;;7.40;2.80;;;;;;;6.98;97.28;101189.88;5015320;28;20056;-75
2022/10/12 06:56:59;;;;;;;5.15;2.60;;;;;;;7.02;97.20;101194.66;4990386;28;20029;-75
2022/10/12 06:59:24;;;;;;;5.10;2.05;;;;;;;7.09;97.15;101191.72;5022636;28;20021;-75
2022/10/12 07:01:50;;;;;;;3.70;2.20;;;;;;;7.12;96.93;101192.03;4999613;28;20541;-75
2022/10/12 07:04:16;;;;;;;4.88;2.20;;;;;;;7.16;96.93;101200.66;5015664;28;20478;-75
2022/10/12 07:06:42;;;;;;;4.95;2.42;;;;;;;7.18;96.96;101198.47;5012843;28;20041;-75
2022/10/12 07:09:08;;;;;;;5.40;2.67;;;;;;;7.26;97.26;101197.19;5006114;28;20036;-75
2022/10/12 07:11:33;;;;;;;6.28;2.00;;;;;;;7.30;97.40;101190.91;5018908;28;20040;-75
2022/10/12 07:13:58;;;;;;;3.67;2.20;;;;;;;7.39;97.20;101194.06;4984667;28;20014;-75
2022/10/12 07:16:24;;;;;;;4.47;2.20;;;;;;;7.42;97.14;101173.38;4990472;28;20192;-75
2022/10/12 07:18:50;;;;;;;5.88;2.13;;;;;;;7.48;97.32;101175.09;4986682;28;20083;-75
2022/10/12 07:21:15;;;;;;;5.45;2.17;;;;;;;7.51;97.34;101169.06;5033035;28;20517;-75
2022/10/12 07:23:41;;;;;;;4.63;2.00;;;;;;;7.53;97.13;101172.41;5017343;28;20030;-75
2022/10/12 07:26:07;;;;;;;5.70;2.50;;;;;;;7.56;97.04;101183.78;5014540;28;20033;-75
2022/10/12 07:28:33;;;;;;;6.22;2.70;;;;;;;7.58;98.11;101183.53;5035585;28;20033;-74
2022/10/12 07:31:00;;;;;;;5.45;2.33;;;;;;;7.59;98.44;101187.97;5014191;28;20048;-75
2022/10/12 07:33:26;;;;;;;3.80;2.30;;;;;;;7.61;97.72;101177.47;5018329;28;20034;-75
2022/10/12 07:35:55;;;;;;;6.05;2.53;;;;;;;7.65;97.52;101175.03;5003444;28;20033;-75
2022/10/12 07:38:20;;;;;;;4.50;2.40;;;;;;;7.67;97.73;101178.38;5016737;28;20065;-75
2022/10/12 07:40:46;;;;;;;5.40;2.25;;;;;;;7.74;97.97;101173.47;4997690;28;20045;-75
2022/10/12 07:43:12;;;;;;;8.38;2.72;;;;;;;7.79;97.87;101187.34;5015964;28;20372;-75
2022/10/12 07:45:38;;;;;;;5.55;3.20;;;;;;;7.79;100.00;101181.81;4993895;28;20061;-75
2022/10/12 07:48:04;;;;;;;7.65;3.05;;;;;;;7.89;100.00;101184.72;5007284;28;20034;-76
2022/10/12 07:50:29;;;;;;;5.10;2.92;;;;;;;8.00;100.00;101202.25;5027371;28;20032;-75
2022/10/12 07:52:55;;;;;;;7.38;2.72;;;;;;;8.12;99.68;101202.94;4983323;28;20655;-75
2022/10/12 07:55:20;;;;;;;7.47;3.35;;;;;;;8.23;98.90;101201.94;4988115;28;20579;-75
2022/10/12 07:57:46;;;;;;;5.45;2.60;;;;;;;8.37;98.90;101201.53;5014545;28;20034;-75
2022/10/12 08:00:11;;;;;;;4.13;2.60;;;;;;;8.49;99.56;101211.34;5026586;28;20724;-75
2022/10/12 08:02:37;;;;;;;8.15;3.22;;;;;;;8.62;99.95;101206.47;5000789;28;20052;-75
2022/10/12 08:05:03;;;;;;;6.63;2.83;;;;;;;8.77;99.07;101214.91;5025661;28;20483;-75
2022/10/12 08:07:28;;;;;;;7.95;3.05;;;;;;;8.91;98.35;101218.06;5017077;28;20029;-75
2022/10/12 08:09:54;;;;;;;7.28;2.75;;;;;;;9.07;98.64;101230.09;5029012;28;20393;-75
2022/10/12 08:12:19;;;;;;;5.75;3.50;;;;;;;9.23;100.00;101226.31;5034499;28;20033;-75
2022/10/12 08:14:45;;;;;;;10.32;2.95;;;;;;;9.43;100.00;101222.81;5023843;28;20030;-75
2022/10/12 08:17:11;;;;;;;6.95;3.28;;;;;;;9.62;100.00;101215.72;5031756;28;20044;-75
2022/10/12 08:19:36;;;;;;;8.10;4.15;;;;;;;9.84;100.00;101229.41;5018211;28;20036;-75
2022/10/12 08:22:02;;;;;;;9.02;4.22;;;;;;;10.05;100.00;101241.38;4999973;28;20037;-75
2022/10/12 08:24:27;;;;;;;8.05;3.65;;;;;;;10.25;100.00;101235.06;4998962;28;20029;-75
2022/10/12 08:26:53;;;;;;;7.78;3.42;;;;;;;10.45;100.00;101234.31;5014129;28;20045;-75
2022/10/12 08:29:18;;;;;;;9.75;4.32;;;;;;;10.64;100.00;101237.38;5027115;28;20041;-75
2022/10/12 08:31:44;;;;;;;11.55;4.88;;;;;;;10.81;100.00;101242.66;5015822;28;20037;-75
2022/10/12 08:34:10;;;;;;;12.50;4.90;;;;;;;10.95;100.00;101235.44;5015229;28;20100;-75
2022/10/12 08:36:35;;;;;;;11.32;4.68;;;;;;;11.10;100.00;101245.69;5030889;28;20049;-75
2022/10/12 08:39:01;;;;;;;11.02;5.55;;;;;;;11.25;100.00;101252.34;5013587;28;20117;-75
2022/10/12 08:41:29;;;;;;;11.80;4.53;;;;;;;11.38;100.00;101246.22;5019231;28;20077;-75
2022/10/12 08:44:26;;;;;;;11.98;4.68;;;;;;;11.54;100.00;101247.00;5046188;28;20033;-75
2022/10/12 08:46:57;;;;;;;9.52;5.70;;;;;;;11.72;100.00;101246.38;5031615;28;20037;-75
2022/10/12 08:49:23;;;;;;;10.57;5.43;;;;;;;11.83;100.00;101250.78;5015483;28;20040;-75
2022/10/12 08:51:51;;;;;;;10.18;4.40;;;;;;;11.97;100.00;101251.03;4985925;28;20354;-75
2022/10/12 08:54:19;;;;;;;17.08;6.90;;;;;;;12.08;100.00;101249.03;5001215;28;20071;-75
2022/10/12 08:56:44;;;;;;;11.32;6.18;;;;;;;12.23;100.00;101243.41;5009446;28;20032;-74
2022/10/12 08:59:12;;;;;;;10.65;5.82;;;;;;;12.41;100.00;101249.41;5005270;28;20026;-75
2022/10/12 09:01:51;;;;;;;12.50;5.97;;;;;;;12.54;100.00;101240.41;5004018;28;20032;-75
2022/10/12 09:04:43;;;;;;;10.88;5.18;;;;;;;12.71;100.00;101242.81;4989612;28;20068;-75
2022/10/12 09:07:14;;;;;;;12.57;6.18;;;;;;;12.84;100.00;101239.34;5021462;28;20423;-75
2022/10/12 09:09:58;;;;;;;12.07;4.75;;;;;;;13.01;100.00;101232.50;5022223;28;20110;-75
2022/10/12 09:13:05;;;;;;;10.50;4.70;;;;;;;13.17;100.00;101220.06;5031932;28;20030;-75
2022/10/12 09:15:49;;;;;;;15.43;6.03;;;;;;;13.29;100.00;101214.97;5035077;28;20052;-75
2022/10/12 09:18:28;;;;;;;16.55;7.65;;;;;;;13.41;100.00;101212.59;5025557;28;20049;-75
2022/10/12 09:20:54;;;;;;;13.75;7.03;;;;;;;13.52;100.00;101204.94;4998991;28;20425;-75
2022/10/12 09:23:29;;;;;;;10.35;4.88;;;;;;;13.63;100.00;101197.28;4985660;28;20022;-75
2022/10/12 09:26:18;;;;;;;11.48;6.20;;;;;;;13.79;100.00;101187.59;5005390;28;20030;-75
2022/10/12 09:28:45;;;;;;;16.45;8.70;;;;;;;13.97;100.00;101188.72;5020046;28;20046;-75
2022/10/12 09:31:35;;;;;;;16.02;7.97;;;;;;;14.09;100.00;101183.53;5038048;28;20033;-75
2022/10/12 09:34:03;;;;;;;18.98;6.70;;;;;;;14.29;100.00;101178.75;5025437;28;20026;-75
2022/10/12 09:36:36;;;;;;;21.20;9.02;;;;;;;14.48;100.00;101168.41;5016587;28;20030;-75
2022/10/12 09:39:05;;;;;;;20.35;9.15;;;;;;;14.64;100.00;101180.19;5030453;28;20385;-75
2022/10/12 09:41:35;;;;;;;21.33;10.13;;;;;;;14.78;100.00;101174.66;4992014;28;20033;-76
2022/10/12 09:44:02;;;;;;;21.92;9.85;;;;;;;14.96;100.00;101179.38;5047655;28;20078;-75
2022/10/12 09:46:34;;;;;;;16.42;8.45;;;;;;;15.17;100.00;101179.81;5011259;28;20032;-75
2022/10/12 09:49:00;;;;;;;21.58;9.38;;;;;;;15.33;100.00;101179.53;5013913;28;20117;-76
2022/10/12 09:51:26;;;;;;;14.20;8.80;;;;;;;15.47;100.00;101173.94;4995787;28;20490;-76
2022/10/12 09:53:53;;;;;;;17.15;8.77;;;;;;;15.62;100.00;101170.81;5000148;28;20030;-75
2022/10/12 09:56:51;;;;;;;16.27;10.32;;;;;;;15.79;100.00;101164.59;5024312;28;20504;-76
2022/10/12 09:59:26;;;;;;;18.65;10.23;;;;;;;15.94;100.00;101155.03;5020084;28;20042;-75
2022/10/12 10:02:06;;;;;;;13.60;8.45;;;;;;;16.09;100.00;101157.47;5018296;28;20084;-75
2022/10/12 10:04:32;;;;;;;13.15;7.32;;;;;;;16.25;100.00;101155.97;5027163;28;20056;-75
2022/10/12 10:07:29;;;;;;;15.60;8.18;;;;;;;16.44;100.00;101153.00;5008192;28;20379;-75
2022/10/12 10:10:07;;;;;;;17.27;9.52;;;;;;;16.57;100.00;101150.44;5020028;28;20069;-76
2022/10/12 10:12:32;;;;;;;18.10;9.80;;;;;;;16.69;100.00;101159.13;5014818;28;20085;-74
2022/10/12 10:14:58;;;;;;;16.33;9.23;;;;;;;16.81;99.24;101161.38;5000972;28;20053;-75
2022/10/12 10:17:27;;;;;;;18.63;8.55;;;;;;;16.98;99.20;101158.66;5025438;28;20087;-75
2022/10/12 10:19:53;;;;;;;19.67;8.82;;;;;;;17.09;98.44;101151.63;5004516;28;20033;-75
2022/10/12 10:22:19;;;;;;;17.83;8.10;;;;;;;17.26;97.44;101150.03;5020332;28;20434;-75
2022/10/12 10:24:56;;;;;;;18.52;7.78;;;;;;;17.42;96.28;101148.47;5004071;28;20029;-75
2022/10/12 10:27:33;;;;;;;13.32;6.50;;;;;;;17.60;94.05;101136.13;5002471;28;20021;-75
2022/10/12 10:30:20;;;;;;;15.25;8.57;;;;;;;17.82;93.39;101138.00;4998344;28;20494;-75
2022/10/12 10:32:46;;;;;;;19.70;8.98;;;;;;;17.94;93.72;101157.06;5005836;28;20033;-75
2022/10/12 10:35:11;;;;;;;16.63;8.18;;;;;;;18.06;94.79;101162.84;5000225;28;20033;-75
2022/10/12 10:37:57;;;;;;;16.02;8.43;;;;;;;18.20;93.48;101161.88;5047746;28;20033;-75
2022/10/12 10:40:24;;;;;;;17.95;8.57;;;;;;;18.34;93.31;101151.28;5012562;28;20124;-75
2022/10/12 10:42:54;;;;;;;19.45;8.27;;;;;;;18.47;92.84;101160.69;5006826;28;20501;-74
2022/10/12 10:45:25;;;;;;;14.98;8.25;;;;;;;18.59;92.55;101162.88;5004223;28;20037;-74
2022/10/12 10:47:55;;;;;;;15.25;7.68;;;;;;;18.72;91.84;101171.13;5012211;28;20034;-75
2022/10/12 10:50:26;;;;;;;17.20;8.00;;;;;;;18.87;92.29;101178.22;5004434;28;20038;-75
2022/10/12 10:52:56;;;;;;;16.77;7.70;;;;;;;18.98;90.85;101182.34;5022545;28;20029;-75
2022/10/12 10:55:25;;;;;;;15.48;7.88;;;;;;;19.10;89.05;101194.91;5004544;28;20044;-74
2022/10/12 10:58:04;;;;;;;16.75;7.57;;;;;;;19.21;87.01;101215.91;5030413;28;20052;-75
2022/10/12 11:00:31;;;;;;;17.55;8.38;;;;;;;19.31;85.17;101226.81;5003276;28;20095;-75
2022/10/12 11:03:00;;;;;;;13.88;7.10;;;;;;;19.39;86.66;101222.31;5019336;28;20033;-75
2022/10/12 11:05:36;;;;;;;13.77;7.65;;;;;;;19.49;86.84;101226.75;5000257;28;20085;-75
2022/10/12 11:08:21;;;;;;;13.40;7.25;;;;;;;19.58;87.29;101227.53;5004609;28;20041;-75
2022/10/12 11:11:05;;;;;;;14.98;7.85;;;;;;;19.65;85.37;101227.84;5019065;28;20052;-75
2022/10/12 11:13:40;;;;;;;18.52;7.95;;;;;;;19.70;86.45;101227.69;4999692;28;20473;-74
2022/10/12 11:16:27;;;;;;;20.40;8.43;;;;;;;19.74;84.47;101220.19;5023904;28;20086;-74
2022/10/12 11:18:57;;;;;;;17.02;9.38;;;;;;;19.76;84.71;101220.69;5042207;28;20036;-75
2022/10/12 11:21:35;;;;;;;15.88;8.68;;;;;;;19.82;83.97;101213.69;4985060;28;20049;-74
2022/10/12 11:24:06;;;;;;;21.83;8.85;;;;;;;19.88;83.98;101217.16;5023270;28;20041;-75
2022/10/12 11:26:42;;;;;;;16.52;8.75;;;;;;;19.93;83.25;101216.13;4992123;28;20514;-75
2022/10/12 11:29:08;;;;;;;16.00;8.40;;;;;;;19.99;83.75;101211.94;5026031;28;20037;-75
2022/10/12 11:31:38;;;;;;;17.65;8.27;;;;;;;19.98;82.17;101202.66;5002235;28;20120;-75
2022/10/12 11:34:05;;;;;;;15.07;7.18;;;;;;;20.03;82.04;101204.44;4983511;28;20033;-75